createdAt,value
2019-04-05T00:00:13.915Z,94.15
2019-04-05T00:02:44.755Z,94.36
2019-04-05T00:05:16.244Z,94.80
2019-04-05T00:07:47.090Z,95.15
2019-04-05T00:10:18.046Z,95.18
2019-04-05T00:12:48.954Z,95.18
2019-04-05T00:15:19.856Z,95.38
2019-04-05T00:17:50.723Z,95.88
2019-04-05T00:20:21.596Z,95.94
2019-04-05T00:22:52.438Z,95.80
2019-04-05T00:25:23.288Z,96.56
2019-04-05T00:27:54.158Z,96.30
2019-04-05T00:30:25.114Z,96.92
2019-04-05T00:32:55.990Z,97.01
2019-04-05T00:35:26.888Z,97.10
2019-04-05T00:37:57.714Z,96.66
2019-04-05T00:40:28.578Z,96.86
2019-04-05T00:42:59.502Z,97.03
2019-04-05T00:45:30.446Z,96.78
2019-04-05T00:48:01.431Z,96.59
2019-04-05T00:50:32.305Z,96.68
2019-04-05T00:53:03.402Z,96.42
2019-04-05T00:55:36.927Z,96.23
2019-04-05T00:58:08.008Z,96.08
2019-04-05T01:00:38.983Z,96.29
2019-04-05T01:03:09.851Z,96.12
2019-04-05T01:05:41.030Z,96.13
2019-04-05T01:08:11.954Z,95.85
2019-04-05T01:10:42.972Z,95.86
2019-04-05T01:13:16.937Z,95.77
2019-04-05T01:15:47.797Z,95.68
2019-04-05T01:18:18.730Z,95.58
2019-04-05T01:20:49.939Z,95.67
2019-04-05T01:23:21.755Z,95.57
2019-04-05T01:25:54.168Z,95.66
2019-04-05T01:28:25.112Z,95.33
2019-04-05T01:30:56.007Z,95.01
2019-04-05T01:33:27.219Z,94.88
2019-04-05T01:35:58.051Z,94.79
2019-04-05T01:38:29.256Z,94.57
2019-04-05T01:41:00.668Z,94.04
2019-04-05T01:43:31.506Z,94.11
2019-04-05T01:46:02.816Z,94.12
2019-04-05T01:48:33.731Z,94.04
2019-04-05T01:51:04.831Z,93.90
2019-04-05T01:53:35.686Z,93.91
2019-04-05T01:56:06.619Z,93.75
2019-04-05T01:58:37.508Z,93.46
2019-04-05T02:01:08.311Z,93.48
2019-04-05T02:03:39.239Z,93.63
2019-04-05T02:06:10.093Z,93.46
2019-04-05T02:08:41.281Z,93.54
2019-04-05T02:11:12.207Z,93.66
2019-04-05T02:13:43.183Z,93.66
2019-04-05T02:16:14.139Z,93.67
2019-04-05T02:18:45.051Z,93.67
2019-04-05T02:21:15.921Z,93.74
2019-04-05T02:23:46.852Z,93.82
2019-04-05T02:26:17.770Z,93.98
2019-04-05T02:28:48.627Z,93.66
2019-04-05T02:31:19.466Z,93.84
2019-04-05T02:33:50.321Z,93.82
2019-04-05T02:36:21.189Z,93.91
2019-04-05T02:38:52.024Z,93.90
2019-04-05T02:41:26.132Z,94.00
2019-04-05T02:43:58.604Z,93.95
2019-04-05T02:46:31.912Z,93.99
2019-04-05T02:49:04.503Z,94.01
2019-04-05T02:51:38.231Z,94.28
2019-04-05T02:54:09.913Z,94.53
2019-04-05T02:56:41.206Z,94.49
2019-04-05T02:59:13.493Z,94.29
2019-04-05T03:01:45.295Z,94.36
2019-04-05T03:04:16.229Z,94.48
2019-04-05T03:06:48.675Z,94.59
2019-04-05T03:09:20.567Z,94.63
2019-04-05T03:11:51.977Z,94.67
2019-04-05T03:14:23.666Z,94.54
2019-04-05T03:16:56.486Z,94.45
2019-04-05T03:19:30.377Z,94.46
2019-04-05T03:22:04.279Z,94.46
2019-04-05T03:24:38.150Z,94.26
2019-04-05T03:27:12.070Z,94.03
2019-04-05T03:29:43.644Z,94.04
2019-04-05T03:32:15.947Z,94.33
2019-04-05T03:34:47.284Z,94.50
2019-04-05T03:37:18.217Z,94.55
2019-04-05T03:39:49.285Z,94.40
2019-04-05T03:42:20.885Z,94.69
2019-04-05T03:44:51.856Z,94.39
2019-04-05T03:47:22.877Z,93.93
2019-04-05T03:49:53.781Z,94.25
2019-04-05T03:52:24.784Z,94.74
2019-04-05T03:54:55.706Z,94.99
2019-04-05T03:57:26.594Z,95.13
2019-04-05T03:59:57.686Z,95.59
2019-04-05T04:02:28.853Z,96.16
2019-04-05T04:04:59.773Z,96.49
2019-04-05T04:07:30.711Z,97.49
2019-04-05T04:10:01.800Z,97.51
2019-04-05T04:12:33.268Z,97.68
2019-04-05T04:15:15.141Z,98.13
2019-04-05T04:17:46.614Z,98.74
2019-04-05T04:20:26.307Z,98.69
2019-04-05T04:22:57.515Z,99.30
2019-04-05T04:25:29.030Z,100.00
2019-04-05T04:28:00.087Z,100.00
2019-04-05T04:30:31.771Z,100.00
2019-04-05T04:33:03.426Z,100.00
2019-04-05T04:35:34.604Z,100.00
2019-04-05T04:38:07.247Z,100.00
2019-04-05T04:40:38.385Z,100.00
2019-04-05T04:43:09.871Z,100.00
2019-04-05T04:45:41.098Z,100.00
2019-04-05T04:48:12.683Z,100.00
2019-04-05T04:50:44.383Z,100.00
2019-04-05T04:53:16.660Z,100.00
2019-04-05T04:55:47.591Z,100.00
2019-04-05T04:58:20.270Z,100.00
2019-04-05T05:00:51.512Z,100.00
2019-04-05T05:03:22.705Z,100.00
2019-04-05T05:05:53.722Z,100.00
2019-04-05T05:08:24.775Z,100.00
2019-04-05T05:10:55.760Z,100.00
2019-04-05T05:13:26.883Z,100.00
2019-04-05T05:15:58.169Z,100.00
2019-04-05T05:18:29.323Z,100.00
2019-04-05T05:21:03.034Z,100.00
2019-04-05T05:23:34.022Z,100.00
2019-04-05T05:26:05.536Z,100.00
2019-04-05T05:28:36.849Z,100.00
2019-04-05T05:31:07.940Z,100.00
2019-04-05T05:33:39.090Z,100.00
2019-04-05T05:36:10.737Z,100.00
2019-04-05T05:38:41.913Z,100.00
2019-04-05T05:41:12.790Z,100.00
2019-04-05T05:43:43.702Z,100.00
2019-04-05T05:46:15.679Z,100.00
2019-04-05T05:48:46.532Z,100.00
2019-04-05T05:51:17.561Z,100.00
2019-04-05T05:53:48.489Z,100.00
2019-04-05T05:56:19.386Z,100.00
2019-04-05T05:58:50.284Z,100.00
2019-04-05T06:01:21.138Z,100.00
2019-04-05T06:03:52.004Z,100.00
2019-04-05T06:06:22.858Z,100.00
2019-04-05T06:08:53.731Z,100.00
2019-04-05T06:14:03.829Z,100.00
2019-04-05T06:16:45.842Z,100.00
2019-04-05T06:19:07.528Z,100.00
2019-04-05T06:21:38.563Z,100.00
2019-04-05T06:24:09.524Z,100.00
2019-04-05T06:26:40.485Z,100.00
2019-04-05T06:29:11.976Z,100.00
2019-04-05T06:31:42.989Z,100.00
2019-04-05T06:34:13.980Z,100.00
2019-04-05T06:36:45.036Z,100.00
2019-04-05T06:39:16.214Z,100.00
2019-04-05T06:41:47.122Z,100.00
2019-04-05T06:44:18.459Z,100.00
2019-04-05T06:46:49.483Z,100.00
2019-04-05T06:49:20.508Z,100.00
2019-04-05T06:51:51.395Z,100.00
2019-04-05T06:54:22.624Z,100.00
2019-04-05T06:56:53.621Z,100.00
2019-04-05T06:59:24.553Z,100.00
2019-04-05T07:01:55.566Z,100.00
2019-04-05T07:04:26.561Z,100.00
2019-04-05T07:06:57.652Z,100.00
2019-04-05T07:09:28.631Z,100.00
2019-04-05T07:11:59.802Z,100.00
2019-04-05T07:14:31.143Z,100.00
2019-04-05T07:17:02.304Z,100.00
2019-04-05T07:19:33.433Z,100.00
2019-04-05T07:22:04.900Z,100.00
2019-04-05T07:24:41.183Z,100.00
2019-04-05T07:27:12.163Z,100.00
2019-04-05T07:29:43.168Z,100.00
2019-04-05T07:32:14.107Z,100.00
2019-04-05T07:34:45.137Z,100.00
2019-04-05T07:37:16.271Z,100.00
2019-04-05T07:39:47.298Z,100.00
2019-04-05T07:42:18.291Z,100.00
2019-04-05T07:44:49.270Z,99.64
2019-04-05T07:47:20.168Z,99.32
2019-04-05T07:49:51.434Z,99.09
2019-04-05T07:52:22.580Z,99.37
2019-04-05T07:54:53.912Z,99.21
2019-04-05T07:57:25.176Z,99.21
2019-04-05T07:59:56.224Z,99.41
2019-04-05T08:02:27.282Z,99.31
2019-04-05T08:04:58.424Z,99.22
2019-04-05T08:07:32.216Z,98.70
2019-04-05T08:10:04.057Z,98.55
2019-04-05T08:12:36.532Z,98.17
2019-04-05T08:15:07.872Z,98.07
2019-04-05T08:17:38.914Z,97.65
2019-04-05T08:20:09.935Z,97.42
2019-04-05T08:22:41.212Z,97.23
2019-04-05T08:25:12.332Z,96.83
2019-04-05T08:27:43.366Z,96.97
2019-04-05T08:30:14.830Z,97.33
2019-04-05T08:32:47.590Z,96.81
2019-04-05T08:35:18.593Z,95.99
2019-04-05T08:37:49.538Z,95.30
2019-04-05T08:40:20.590Z,95.09
2019-04-05T08:42:51.600Z,94.84
2019-04-05T08:45:22.625Z,94.54
2019-04-05T08:47:53.713Z,95.00
2019-04-05T08:50:24.675Z,95.37
2019-04-05T08:52:55.639Z,95.38
2019-04-05T08:55:29.960Z,94.81
2019-04-05T08:58:00.992Z,94.76
2019-04-05T09:00:32.032Z,95.23
2019-04-05T09:03:03.067Z,95.47
2019-04-05T09:05:34.165Z,95.09
2019-04-05T09:08:05.308Z,95.04
2019-04-05T09:10:36.430Z,94.96
2019-04-05T09:13:07.423Z,94.59
2019-04-05T09:15:38.377Z,93.81
2019-04-05T09:18:09.492Z,93.29
2019-04-05T09:20:40.334Z,93.44
2019-04-05T09:23:11.383Z,93.23
2019-04-05T09:25:42.344Z,92.67
2019-04-05T09:28:13.389Z,92.52
2019-04-05T09:30:44.400Z,93.62
2019-04-05T09:33:15.585Z,93.84
2019-04-05T09:35:46.562Z,94.20
2019-04-05T09:38:18.743Z,94.70
2019-04-05T09:40:50.171Z,94.76
2019-04-05T09:43:21.364Z,93.86
2019-04-05T09:45:52.690Z,94.35
2019-04-05T09:48:23.689Z,94.36
2019-04-05T09:51:03.435Z,94.15
2019-04-05T09:53:38.120Z,92.15
2019-04-05T09:56:09.350Z,90.40
2019-04-05T09:58:42.267Z,88.98
2019-04-05T10:01:13.606Z,89.30
2019-04-05T10:03:44.751Z,88.57
2019-04-05T10:06:21.904Z,88.61
2019-04-05T10:08:52.862Z,88.75
2019-04-05T10:11:24.099Z,88.10
2019-04-05T10:13:55.096Z,88.13
2019-04-05T10:16:33.073Z,87.93
2019-04-05T10:19:04.849Z,87.34
2019-04-05T10:21:35.894Z,86.40
2019-04-05T10:24:06.929Z,86.99
2019-04-05T10:26:37.979Z,87.00
2019-04-05T10:29:08.915Z,86.50
2019-04-05T10:31:40.081Z,85.34
2019-04-05T10:34:11.049Z,85.03
2019-04-05T10:36:42.204Z,84.97
2019-04-05T10:39:13.197Z,85.15
2019-04-05T10:41:44.283Z,84.09
2019-04-05T10:44:17.991Z,82.70
2019-04-05T10:46:49.039Z,82.56
2019-04-05T10:49:25.133Z,81.45
2019-04-05T10:51:56.129Z,80.69
2019-04-05T10:54:27.439Z,80.89
2019-04-05T10:57:00.157Z,82.06
2019-04-05T10:59:33.082Z,82.78
2019-04-05T11:02:04.049Z,81.61
2019-04-05T11:04:38.027Z,82.05
2019-04-05T11:07:09.023Z,81.46
2019-04-05T11:09:40.324Z,79.58
2019-04-05T11:12:11.669Z,78.39
2019-04-05T11:14:45.607Z,78.48
2019-04-05T11:17:16.523Z,76.92
2019-04-05T11:19:47.623Z,77.71
2019-04-05T11:22:20.951Z,77.76
2019-04-05T11:24:51.723Z,76.76
2019-04-05T11:27:22.799Z,76.91
2019-04-05T11:29:53.849Z,78.20
2019-04-05T11:32:26.540Z,78.48
2019-04-05T11:34:57.548Z,79.67
2019-04-05T11:37:28.915Z,78.84
2019-04-05T11:39:59.983Z,79.05
2019-04-05T11:42:33.107Z,78.56
2019-04-05T11:45:06.542Z,76.85
2019-04-05T11:47:41.143Z,76.17
2019-04-05T11:50:13.113Z,75.92
2019-04-05T11:52:44.539Z,75.38
2019-04-05T11:55:18.180Z,74.25
2019-04-05T11:57:48.657Z,73.46
2019-04-05T12:00:21.421Z,72.71
2019-04-05T12:02:54.024Z,71.80
2019-04-05T12:05:26.988Z,69.76
2019-04-05T12:08:00.972Z,68.61
2019-04-05T12:10:32.112Z,68.67
2019-04-05T12:13:03.412Z,69.28
2019-04-05T12:15:35.696Z,68.78
2019-04-05T12:18:07.401Z,68.94
2019-04-05T12:20:49.094Z,69.94
2019-04-05T12:23:11.339Z,69.92
2019-04-05T12:25:42.316Z,70.31
2019-04-05T12:28:13.277Z,69.35
2019-04-05T12:30:46.243Z,69.08
2019-04-05T12:33:19.572Z,67.83
2019-04-05T12:35:53.017Z,65.87
2019-04-05T12:38:31.564Z,64.84
2019-04-05T12:41:04.744Z,64.63
2019-04-05T12:43:37.622Z,63.61
2019-04-05T12:46:08.706Z,63.43
2019-04-05T12:48:39.841Z,64.08
2019-04-05T12:51:13.149Z,65.53
2019-04-05T12:53:43.628Z,65.83
2019-04-05T12:56:14.621Z,67.11
2019-04-05T12:58:45.576Z,69.01
2019-04-05T13:01:16.724Z,70.31
2019-04-05T13:03:51.093Z,70.55
2019-04-05T13:06:21.866Z,71.11
2019-04-05T13:08:53.747Z,70.96
2019-04-05T13:11:45.480Z,70.46
2019-04-05T13:14:35.852Z,70.64
2019-04-05T13:17:31.885Z,71.25
2019-04-05T13:20:31.493Z,71.80
2019-04-05T13:23:06.407Z,71.63
2019-04-05T13:25:41.021Z,70.21
2019-04-05T13:28:18.948Z,68.57
2019-04-05T13:30:50.157Z,67.74
2019-04-05T13:33:23.597Z,63.70
2019-04-05T13:35:55.569Z,58.85
2019-04-05T13:38:27.522Z,53.59
2019-04-05T13:41:02.192Z,51.62
2019-04-05T13:43:33.314Z,51.69
2019-04-05T13:46:05.818Z,52.33
2019-04-05T13:48:39.680Z,52.65
2019-04-05T13:51:13.090Z,54.13
2019-04-05T13:53:44.232Z,56.32
2019-04-05T13:56:18.066Z,57.53
2019-04-05T13:58:49.062Z,59.04
2019-04-05T14:01:20.575Z,59.49
2019-04-05T14:03:52.252Z,60.38
2019-04-05T14:06:23.698Z,61.29
2019-04-05T14:08:54.673Z,62.39
2019-04-05T14:11:26.093Z,61.93
2019-04-05T14:13:57.174Z,62.75
2019-04-05T14:16:31.415Z,62.43
2019-04-05T14:19:03.060Z,62.56
2019-04-05T14:21:40.230Z,62.52
2019-04-05T14:24:06.791Z,62.04
2019-04-05T14:26:37.955Z,60.99
2019-04-05T14:29:08.924Z,60.50
2019-04-05T14:31:42.772Z,60.22
2019-04-05T14:34:13.882Z,60.39
2019-04-05T14:36:45.166Z,60.46
2019-04-05T14:39:16.304Z,60.40
2019-04-05T14:41:47.352Z,60.11
2019-04-05T14:44:18.400Z,60.50
2019-04-05T14:46:51.403Z,61.03
2019-04-05T14:49:22.426Z,60.29
2019-04-05T14:51:56.567Z,60.37
2019-04-05T14:54:27.091Z,59.53
2019-04-05T14:57:02.442Z,59.96
2019-04-05T14:59:32.794Z,60.41
2019-04-05T15:02:06.983Z,59.37
2019-04-05T15:04:39.680Z,58.90
2019-04-05T15:07:10.775Z,59.35
2019-04-05T15:09:45.414Z,59.74
2019-04-05T15:12:16.345Z,60.45
2019-04-05T15:14:47.437Z,60.24
2019-04-05T15:17:18.372Z,59.52
2019-04-05T15:19:49.333Z,59.80
2019-04-05T15:22:20.234Z,59.83
2019-04-05T15:24:51.287Z,59.87
2019-04-05T15:27:22.413Z,60.35
2019-04-05T15:29:55.602Z,59.65
2019-04-05T15:32:26.670Z,59.86
2019-04-05T15:34:59.002Z,58.26
2019-04-05T15:37:32.486Z,59.01
2019-04-05T15:40:02.971Z,59.34
2019-04-05T15:42:33.957Z,58.77
2019-04-05T15:45:10.147Z,57.99
2019-04-05T15:47:41.209Z,58.20
2019-04-05T15:50:12.456Z,57.87
2019-04-05T15:52:44.141Z,58.26
2019-04-05T15:55:16.041Z,57.85
2019-04-05T15:57:47.018Z,57.74
2019-04-05T16:00:21.106Z,57.98
2019-04-05T16:02:52.307Z,58.31
2019-04-05T16:05:23.387Z,59.24
2019-04-05T16:07:54.489Z,59.49
2019-04-05T16:10:25.655Z,59.49
2019-04-05T16:12:56.651Z,59.48
2019-04-05T16:15:27.710Z,58.52
2019-04-05T16:17:58.899Z,58.04
2019-04-05T16:20:29.910Z,57.93
2019-04-05T16:23:01.013Z,56.88
2019-04-05T16:25:32.596Z,56.22
2019-04-05T16:28:03.602Z,55.40
2019-04-05T16:30:34.568Z,55.11
2019-04-05T16:33:05.697Z,55.45
2019-04-05T16:35:36.659Z,55.46
2019-04-05T16:38:07.723Z,55.73
2019-04-05T16:40:39.351Z,55.86
2019-04-05T16:43:10.346Z,55.85
2019-04-05T16:45:41.403Z,55.70
2019-04-05T16:48:12.563Z,56.57
2019-04-05T16:50:43.512Z,57.24
2019-04-05T16:53:14.539Z,57.81
2019-04-05T16:55:45.574Z,57.99
2019-04-05T16:58:16.530Z,57.45
2019-04-05T17:00:47.656Z,58.20
2019-04-05T17:03:20.347Z,58.65
2019-04-05T17:05:51.288Z,59.31
2019-04-05T17:08:22.233Z,59.92
2019-04-05T17:10:53.250Z,60.79
2019-04-05T17:13:24.453Z,61.37
2019-04-05T17:15:55.496Z,62.19
2019-04-05T17:18:26.531Z,62.89
2019-04-05T17:20:57.541Z,64.00
2019-04-05T17:23:33.136Z,64.12
2019-04-05T17:26:04.193Z,64.85
2019-04-05T17:28:38.390Z,65.37
2019-04-05T17:31:09.628Z,65.93
2019-04-05T17:33:40.758Z,66.06
2019-04-05T17:36:11.882Z,66.77
2019-04-05T17:38:44.179Z,67.97
2019-04-05T17:41:15.136Z,69.00
2019-04-05T17:43:46.108Z,70.40
2019-04-05T17:46:18.666Z,71.56
2019-04-05T17:48:51.740Z,72.54
2019-04-05T17:51:22.569Z,73.06
2019-04-05T17:53:53.773Z,73.83
2019-04-05T17:56:28.679Z,74.35
2019-04-05T17:58:59.786Z,74.27
2019-04-05T18:01:31.910Z,74.85
2019-04-05T18:04:03.039Z,75.12
2019-04-05T18:06:35.970Z,75.44
2019-04-05T18:09:07.650Z,75.92
2019-04-05T18:11:41.839Z,75.97
2019-04-05T18:14:12.997Z,76.30
2019-04-05T18:16:44.074Z,76.61
2019-04-05T18:19:15.060Z,76.62
2019-04-05T18:21:49.258Z,77.12
2019-04-05T18:24:21.928Z,77.19
2019-04-05T18:26:54.156Z,77.00
2019-04-05T18:29:27.490Z,77.57
2019-04-05T18:31:59.483Z,77.84
2019-04-05T18:34:35.088Z,78.23
2019-04-05T18:37:07.348Z,78.79
2019-04-05T18:39:40.106Z,79.34
2019-04-05T18:42:12.466Z,80.01
2019-04-05T18:44:45.247Z,80.53
2019-04-05T18:47:18.342Z,80.81
2019-04-05T18:50:02.403Z,81.44
2019-04-05T18:52:25.920Z,82.04
2019-04-05T18:54:59.659Z,82.40
2019-04-05T18:57:30.604Z,82.73
2019-04-05T19:00:01.589Z,83.27
2019-04-05T19:02:34.105Z,83.43
2019-04-05T19:05:06.859Z,83.57
2019-04-05T19:07:37.756Z,83.94
2019-04-05T19:10:11.120Z,84.03
2019-04-05T19:12:42.279Z,84.36
2019-04-05T19:15:16.533Z,84.45
2019-04-05T19:17:47.510Z,85.26
2019-04-05T19:20:20.318Z,85.11
2019-04-05T19:22:51.254Z,84.91
2019-04-05T19:25:23.901Z,84.75
2019-04-05T19:27:54.771Z,84.30
2019-04-05T19:50:59.130Z,84.12
2019-04-05T19:53:30.189Z,84.32
2019-04-05T19:56:01.192Z,84.78
2019-04-05T19:58:32.391Z,85.18
2019-04-05T20:01:03.418Z,85.84
2019-04-05T20:03:34.464Z,86.11
2019-04-05T20:06:07.722Z,85.94
2019-04-05T20:08:38.266Z,86.25
2019-04-05T20:11:09.281Z,86.59
2019-04-05T20:13:40.402Z,86.78
2019-04-05T20:16:11.388Z,86.81
2019-04-05T20:18:42.506Z,86.90
2019-04-05T20:21:13.417Z,87.43
2019-04-05T20:23:47.726Z,87.49
2019-04-05T20:26:17.314Z,87.84
2019-04-05T20:28:48.307Z,87.92
2019-04-05T20:31:19.359Z,87.95
2019-04-05T20:33:50.353Z,88.18
2019-04-05T20:36:21.412Z,88.35
2019-04-05T20:38:52.395Z,88.38
2019-04-05T20:41:23.393Z,88.38
2019-04-05T20:43:54.300Z,88.37
2019-04-05T20:46:25.282Z,88.52
2019-04-05T20:48:56.339Z,88.51
2019-04-05T20:51:27.446Z,88.50
2019-04-05T20:53:58.353Z,88.19
2019-04-05T20:56:29.486Z,87.96
2019-04-05T20:59:00.420Z,88.13
2019-04-05T21:01:31.403Z,87.90
2019-04-05T21:04:02.377Z,87.93
2019-04-05T21:06:33.789Z,88.04
2019-04-05T21:09:07.318Z,88.07
2019-04-05T21:11:38.739Z,88.28
2019-04-05T21:14:10.147Z,88.45
2019-04-05T21:16:45.098Z,88.27
2019-04-05T21:19:16.295Z,88.62
2019-04-05T21:21:47.301Z,89.88
2019-04-05T21:24:18.198Z,89.73
2019-04-05T21:26:49.151Z,90.16
2019-04-05T21:29:20.163Z,90.09
2019-04-05T21:31:51.217Z,90.57
2019-04-05T21:34:22.202Z,90.81
2019-04-05T21:36:53.214Z,91.81
2019-04-05T21:39:24.172Z,92.27
2019-04-05T21:41:55.064Z,92.38
2019-04-05T21:44:26.195Z,92.77
2019-04-05T21:46:57.134Z,92.91
2019-04-05T21:49:28.020Z,93.61
2019-04-05T21:51:59.128Z,95.33
2019-04-05T21:54:30.060Z,95.73
2019-04-05T21:57:01.063Z,96.50
2019-04-05T21:59:32.004Z,96.46
2019-04-05T22:02:03.246Z,97.09
2019-04-05T22:04:34.128Z,96.90
2019-04-05T22:07:05.174Z,96.54
2019-04-05T22:09:36.110Z,97.27
2019-04-05T22:12:07.064Z,97.92
2019-04-05T22:14:38.066Z,98.36
2019-04-05T22:17:09.164Z,98.28
2019-04-05T22:19:40.149Z,97.92
2019-04-05T22:22:11.244Z,98.69
2019-04-05T22:24:42.207Z,99.02
2019-04-05T22:27:13.144Z,99.01
2019-04-05T22:29:44.194Z,99.84
2019-04-05T22:32:15.190Z,99.75
2019-04-05T22:34:46.168Z,100.00
2019-04-05T22:37:17.076Z,100.00
2019-04-05T22:39:47.970Z,100.00
2019-04-05T22:42:18.924Z,100.00
2019-04-05T22:44:50.047Z,100.00
2019-04-05T22:47:21.192Z,100.00
2019-04-05T22:49:52.186Z,100.00
2019-04-05T22:52:23.652Z,100.00
2019-04-05T22:54:54.720Z,100.00
2019-04-05T22:57:25.781Z,100.00
2019-04-05T22:59:56.889Z,100.00
2019-04-05T23:02:27.994Z,100.00
2019-04-05T23:05:00.914Z,100.00
2019-04-05T23:07:31.707Z,100.00
2019-04-05T23:10:02.925Z,100.00
2019-04-05T23:12:33.906Z,100.00
2019-04-05T23:15:07.207Z,100.00
2019-04-05T23:17:38.294Z,100.00
2019-04-05T23:20:09.720Z,100.00
2019-04-05T23:22:40.886Z,100.00
2019-04-05T23:25:21.465Z,100.00
2019-04-05T23:27:44.563Z,100.00
2019-04-05T23:30:16.361Z,100.00
2019-04-05T23:32:47.403Z,100.00
2019-04-05T23:35:18.446Z,100.00
2019-04-05T23:37:49.750Z,100.00
2019-04-05T23:40:20.871Z,100.00
2019-04-05T23:42:52.141Z,100.00
2019-04-05T23:45:23.062Z,100.00
2019-04-05T23:47:54.055Z,100.00
2019-04-05T23:50:25.051Z,100.00
2019-04-05T23:52:56.001Z,100.00
2019-04-05T23:55:33.133Z,100.00
2019-04-05T23:57:59.803Z,100.00
